Time;durP1;ratioP1;P1;durP2;ratioP2;P2;SDS_P1;SDS_P2;PMS_P1;PMS_P2;Temp;Humidity;BMP_temperature;BMP_pressure;BME280_temperature;BME280_humidity;BME280_pressure;Samples;Min_cycle;Max_cycle;Signal;HPM_P1;HPM_P2
2021/04/28 00:00:48;;;;;;;10.98;6.88;;;7.70;52.30;;;;;;5059644;28;20128;-63
2021/04/28 00:03:17;;;;;;;11.50;6.80;;;7.70;52.60;;;;;;5061140;28;20025;-63
2021/04/28 00:05:45;;;;;;;10.30;6.93;;;7.70;52.70;;;;;;5061200;28;20056;-63
2021/04/28 00:08:12;;;;;;;10.98;6.80;;;7.60;52.50;;;;;;5057172;28;20036;-64
2021/04/28 00:10:42;;;;;;;13.45;6.85;;;7.60;52.80;;;;;;5054246;28;20075;-64
2021/04/28 00:13:18;;;;;;;10.98;7.50;;;7.60;52.90;;;;;;5061260;28;20037;-63
2021/04/28 00:15:49;;;;;;;9.73;7.18;;;7.60;53.40;;;;;;5066891;28;20047;-63
2021/04/28 00:18:20;;;;;;;14.07;7.47;;;7.50;53.10;;;;;;5064940;28;20036;-62
2021/04/28 00:20:52;;;;;;;13.38;7.88;;;7.50;53.00;;;;;;5063540;28;20673;-63
2021/04/28 00:23:18;;;;;;;15.23;9.30;;;7.50;53.20;;;;;;5057469;28;20037;-63
2021/04/28 00:25:46;;;;;;;13.30;8.23;;;7.50;53.10;;;;;;5065918;28;20048;-63
2021/04/28 00:28:14;;;;;;;17.15;9.25;;;7.40;53.30;;;;;;5062594;28;20040;-63
2021/04/28 00:30:40;;;;;;;17.77;8.80;;;7.50;53.40;;;;;;5062358;28;20036;-63
2021/04/28 00:33:08;;;;;;;13.45;8.02;;;7.50;53.30;;;;;;5058538;28;20040;-63
2021/04/28 00:35:37;;;;;;;15.45;8.73;;;7.40;54.20;;;;;;5063642;28;20543;-63
2021/04/28 00:38:09;;;;;;;15.95;8.65;;;7.40;53.30;;;;;;5062569;28;20036;-62
2021/04/28 00:40:43;;;;;;;15.60;9.13;;;7.40;53.70;;;;;;5061818;28;20470;-63
2021/04/28 00:43:12;;;;;;;18.05;9.05;;;7.40;53.60;;;;;;5059510;28;20511;-64
2021/04/28 00:45:42;;;;;;;16.60;8.95;;;7.30;53.50;;;;;;5058192;28;20056;-64
2021/04/28 00:48:11;;;;;;;11.20;8.00;;;7.30;53.70;;;;;;5059754;28;20721;-63
2021/04/28 00:50:43;;;;;;;10.70;7.72;;;7.20;53.60;;;;;;5065271;28;20040;-63
2021/04/28 00:53:20;;;;;;;13.75;8.43;;;7.10;53.90;;;;;;5065196;28;20124;-64
2021/04/28 00:55:51;;;;;;;15.20;7.75;;;7.10;54.00;;;;;;5061490;28;20451;-63
2021/04/28 00:58:24;;;;;;;13.43;7.85;;;7.10;54.00;;;;;;5065536;28;20067;-63
2021/04/28 01:00:50;;;;;;;14.57;8.70;;;7.10;54.10;;;;;;5057813;28;20497;-63
2021/04/28 01:03:26;;;;;;;12.77;8.10;;;7.00;54.00;;;;;;5055596;28;20032;-63
2021/04/28 01:06:02;;;;;;;11.43;7.88;;;7.00;54.30;;;;;;5058413;28;20523;-64
2021/04/28 01:08:36;;;;;;;12.85;8.25;;;6.90;54.10;;;;;;5062316;28;20413;-63
2021/04/28 01:11:09;;;;;;;17.02;8.32;;;6.90;54.10;;;;;;5055890;28;20032;-63
2021/04/28 01:13:35;;;;;;;13.10;8.43;;;6.90;54.20;;;;;;5055423;28;20040;-60
2021/04/28 01:16:03;;;;;;;13.55;8.75;;;6.90;54.10;;;;;;5060929;28;20402;-63
2021/04/28 01:18:31;;;;;;;12.82;8.27;;;6.90;54.50;;;;;;5059180;28;20107;-62
2021/04/28 01:21:02;;;;;;;12.02;8.18;;;6.90;54.30;;;;;;5066140;28;20024;-63
2021/04/28 01:23:32;;;;;;;11.65;7.55;;;6.80;54.40;;;;;;5063620;28;20405;-62
2021/04/28 01:25:59;;;;;;;11.98;8.05;;;6.80;54.50;;;;;;5064361;28;20028;-63
2021/04/28 01:28:25;;;;;;;12.90;7.80;;;6.70;54.30;;;;;;5056657;28;20043;-62
2021/04/28 01:31:02;;;;;;;12.77;8.15;;;6.70;54.40;;;;;;5059879;28;20424;-63
2021/04/28 01:33:35;;;;;;;12.00;8.00;;;6.70;55.00;;;;;;5063129;28;20032;-63
2021/04/28 01:36:05;;;;;;;11.60;8.02;;;6.70;54.60;;;;;;5059012;28;20082;-63
2021/04/28 01:38:40;;;;;;;15.82;8.60;;;6.70;54.40;;;;;;5061010;28;20079;-63
2021/04/28 01:41:08;;;;;;;12.80;8.35;;;6.70;54.80;;;;;;5053739;28;20513;-63
2021/04/28 01:43:37;;;;;;;11.35;8.05;;;6.60;54.60;;;;;;5064966;28;20028;-63
2021/04/28 01:46:05;;;;;;;11.18;7.80;;;6.60;54.60;;;;;;5063547;28;20400;-63
2021/04/28 01:48:34;;;;;;;13.00;7.90;;;6.50;54.60;;;;;;5058521;28;20032;-63
2021/04/28 01:51:02;;;;;;;11.65;8.27;;;6.50;54.50;;;;;;5062245;28;20405;-63
2021/04/28 01:53:35;;;;;;;13.85;8.88;;;6.50;54.80;;;;;;5064842;28;20028;-62
2021/04/28 01:56:01;;;;;;;13.13;8.15;;;6.50;55.00;;;;;;5058933;28;20032;-63
2021/04/28 01:58:34;;;;;;;10.63;7.82;;;6.50;54.80;;;;;;5056253;28;20036;-63
2021/04/28 02:01:07;;;;;;;11.63;8.02;;;6.40;55.10;;;;;;5058619;28;20024;-64
2021/04/28 02:03:33;;;;;;;14.60;8.93;;;6.40;55.10;;;;;;5058267;28;20037;-63
2021/04/28 02:06:02;;;;;;;17.33;8.23;;;6.30;55.10;;;;;;5065863;28;20035;-63
2021/04/28 02:08:34;;;;;;;13.30;8.05;;;6.40;55.40;;;;;;5057932;28;20622;-63
2021/04/28 02:11:04;;;;;;;11.00;7.72;;;6.30;55.50;;;;;;5058654;28;20826;-63
2021/04/28 02:13:41;;;;;;;12.80;8.07;;;6.30;55.50;;;;;;5060901;28;20033;-63
2021/04/28 02:16:12;;;;;;;13.05;7.95;;;6.20;55.50;;;;;;5061391;28;20441;-62
2021/04/28 02:18:41;;;;;;;14.13;7.70;;;6.20;55.40;;;;;;5054083;28;20024;-63
2021/04/28 02:21:12;;;;;;;11.32;8.13;;;6.20;55.50;;;;;;5055391;28;20120;-63
2021/04/28 02:23:45;;;;;;;14.43;7.85;;;6.10;55.60;;;;;;5059221;28;20029;-62
2021/04/28 02:26:11;;;;;;;11.57;7.65;;;6.10;55.80;;;;;;5057722;28;20047;-64
2021/04/28 02:28:41;;;;;;;12.93;8.02;;;6.10;55.80;;;;;;5061336;28;20028;-63
2021/04/28 02:31:08;;;;;;;16.35;7.88;;;6.00;56.00;;;;;;5067473;28;20037;-61
2021/04/28 02:33:36;;;;;;;14.80;8.07;;;6.00;56.00;;;;;;5061219;28;20112;-63
2021/04/28 02:36:05;;;;;;;11.95;7.97;;;6.00;56.20;;;;;;5068952;28;20039;-63
2021/04/28 02:38:55;;;;;;;11.45;7.57;;;6.00;56.00;;;;;;5067591;28;20028;-63
2021/04/28 02:41:22;;;;;;;10.10;7.25;;;6.00;56.40;;;;;;5066444;28;20424;-63
2021/04/28 02:43:52;;;;;;;10.82;7.47;;;6.00;56.00;;;;;;5067568;28;20048;-62
2021/04/28 02:46:20;;;;;;;10.15;7.32;;;6.00;56.00;;;;;;5063945;28;20517;-63
2021/04/28 02:48:53;;;;;;;12.93;8.38;;;6.00;56.00;;;;;;5064160;28;20036;-63
2021/04/28 02:51:26;;;;;;;10.82;7.80;;;6.00;56.20;;;;;;5064951;28;20464;-62
2021/04/28 02:53:57;;;;;;;16.42;7.50;;;6.00;56.20;;;;;;5065787;28;20040;-63
2021/04/28 02:56:23;;;;;;;12.98;7.85;;;5.90;56.20;;;;;;5064276;28;20075;-64
2021/04/28 02:58:54;;;;;;;12.85;7.65;;;5.90;56.00;;;;;;5063241;28;20048;-64
2021/04/28 03:01:20;;;;;;;12.05;7.95;;;5.90;56.10;;;;;;5063642;28;20111;-63
2021/04/28 03:03:49;;;;;;;11.02;7.53;;;5.90;56.10;;;;;;5061429;28;20064;-63
2021/04/28 03:06:17;;;;;;;11.82;7.78;;;5.80;56.10;;;;;;5066152;28;20032;-61
2021/04/28 03:08:46;;;;;;;13.40;7.82;;;5.80;56.30;;;;;;5061594;28;20051;-64
2021/04/28 03:11:14;;;;;;;11.25;7.80;;;5.70;56.40;;;;;;5057078;28;20036;-63
2021/04/28 03:13:43;;;;;;;10.88;8.25;;;5.70;56.60;;;;;;5065905;28;20493;-63
2021/04/28 03:16:18;;;;;;;11.93;7.57;;;5.70;56.60;;;;;;5067896;28;20052;-62
2021/04/28 03:18:47;;;;;;;13.73;7.22;;;5.70;57.50;;;;;;5063288;28;20048;-62
2021/04/28 03:21:18;;;;;;;12.27;7.90;;;5.60;56.50;;;;;;5067628;28;20560;-61
2021/04/28 03:23:47;;;;;;;11.48;7.75;;;5.60;56.50;;;;;;5066341;28;20055;-63
2021/04/28 03:26:16;;;;;;;11.90;7.60;;;5.60;57.50;;;;;;5067693;28;20037;-64
2021/04/28 03:28:44;;;;;;;12.50;7.95;;;5.60;56.60;;;;;;5057607;28;20414;-63
2021/04/28 03:31:12;;;;;;;12.25;7.75;;;5.60;56.60;;;;;;5060470;28;20119;-63
2021/04/28 03:33:42;;;;;;;12.18;7.25;;;5.60;56.60;;;;;;5065351;28;20060;-62
2021/04/28 03:36:10;;;;;;;12.52;7.63;;;5.60;56.70;;;;;;5062276;28;20063;-63
2021/04/28 03:38:38;;;;;;;9.77;7.38;;;5.60;56.50;;;;;;5057990;28;20032;-63
2021/04/28 03:41:09;;;;;;;11.10;7.63;;;5.70;56.50;;;;;;5059406;28;20028;-63
2021/04/28 03:43:39;;;;;;;11.48;7.47;;;5.70;56.70;;;;;;5065027;28;20031;-62
2021/04/28 03:46:09;;;;;;;13.02;8.30;;;5.70;56.50;;;;;;5064026;28;20025;-63
2021/04/28 03:48:39;;;;;;;11.75;7.68;;;5.70;57.10;;;;;;5054987;28;20028;-63
2021/04/28 03:51:15;;;;;;;11.70;8.00;;;5.60;56.60;;;;;;5060949;28;20044;-62
2021/04/28 03:53:43;;;;;;;15.43;8.75;;;5.70;57.40;;;;;;5066072;28;20029;-63
2021/04/28 03:56:13;;;;;;;15.10;7.78;;;5.70;56.60;;;;;;5056923;28;20036;-63
2021/04/28 03:58:42;;;;;;;14.52;7.82;;;5.60;56.60;;;;;;5058130;28;20551;-64
2021/04/28 04:01:12;;;;;;;12.07;8.02;;;5.60;56.60;;;;;;5059960;28;20086;-63
2021/04/28 04:03:38;;;;;;;12.82;7.80;;;5.50;56.80;;;;;;5054367;28;20040;-63
2021/04/28 04:06:04;;;;;;;13.32;7.65;;;5.50;56.70;;;;;;5064734;28;20033;-63
2021/04/28 04:08:29;;;;;;;14.70;8.05;;;5.40;56.70;;;;;;5060220;28;20032;-63
2021/04/28 04:10:57;;;;;;;12.18;8.65;;;5.40;56.90;;;;;;5056591;28;20036;-63
2021/04/28 04:13:25;;;;;;;13.30;7.97;;;5.30;57.40;;;;;;5061206;28;20029;-63
2021/04/28 04:15:53;;;;;;;12.35;7.95;;;5.30;57.40;;;;;;5059748;28;20040;-64
2021/04/28 04:18:21;;;;;;;14.45;8.00;;;5.20;57.50;;;;;;5061146;28;20028;-63
2021/04/28 04:20:47;;;;;;;13.38;8.25;;;5.10;57.90;;;;;;5057572;28;20024;-63
2021/04/28 04:23:17;;;;;;;12.65;8.20;;;5.10;58.40;;;;;;5063526;28;20029;-63
2021/04/28 04:25:45;;;;;;;12.98;9.50;;;5.10;58.00;;;;;;5066373;28;20623;-63
2021/04/28 04:28:13;;;;;;;16.73;8.75;;;5.00;58.10;;;;;;5058659;28;20060;-64
2021/04/28 04:30:38;;;;;;;12.07;8.02;;;5.00;58.10;;;;;;5056893;28;20047;-63
2021/04/28 04:33:09;;;;;;;13.90;8.00;;;5.10;58.10;;;;;;5064973;28;20033;-63
2021/04/28 04:35:34;;;;;;;11.93;7.82;;;5.10;58.30;;;;;;5062445;28;20112;-62
2021/04/28 04:38:05;;;;;;;14.05;8.20;;;5.20;58.20;;;;;;5064811;28;20124;-64
2021/04/28 04:40:33;;;;;;;13.68;7.55;;;5.10;58.10;;;;;;5066079;28;20494;-62
2021/04/28 04:43:04;;;;;;;12.82;7.80;;;5.10;58.20;;;;;;5066834;28;20421;-62
2021/04/28 04:45:37;;;;;;;13.38;7.78;;;5.10;58.30;;;;;;5065717;28;20032;-64
2021/04/28 04:48:09;;;;;;;14.50;8.68;;;5.20;58.20;;;;;;5068375;28;20070;-62
2021/04/28 04:50:37;;;;;;;12.63;7.68;;;5.20;58.10;;;;;;5062920;28;20036;-61
2021/04/28 04:53:09;;;;;;;19.23;8.13;;;5.30;58.10;;;;;;5063767;28;20086;-64
2021/04/28 04:55:39;;;;;;;11.95;7.93;;;5.30;58.00;;;;;;5066541;28;20036;-61
2021/04/28 04:58:10;;;;;;;14.32;8.52;;;5.30;58.00;;;;;;5065444;28;20044;-63
2021/04/28 05:00:38;;;;;;;20.05;8.80;;;5.30;58.00;;;;;;5066597;28;20032;-62
2021/04/28 05:03:06;;;;;;;16.42;8.35;;;5.40;58.10;;;;;;5065535;28;20033;-62
2021/04/28 05:05:31;;;;;;;33.75;19.83;;;5.40;58.20;;;;;;5061583;28;20036;-63
2021/04/28 05:07:59;;;;;;;21.00;9.70;;;5.40;58.10;;;;;;5066413;28;20025;-63
2021/04/28 05:10:29;;;;;;;14.95;8.75;;;5.40;58.30;;;;;;5060811;28;20021;-62
2021/04/28 05:13:00;;;;;;;14.85;8.32;;;5.50;58.30;;;;;;5066962;28;20036;-62
2021/04/28 05:15:25;;;;;;;19.30;9.00;;;5.50;58.20;;;;;;5065093;28;20497;-62
2021/04/28 05:17:58;;;;;;;20.05;9.52;;;5.60;58.20;;;;;;5064447;28;20086;-62
2021/04/28 05:20:28;;;;;;;23.52;9.57;;;5.60;58.50;;;;;;5065804;28;20021;-63
2021/04/28 05:22:59;;;;;;;18.90;8.93;;;5.70;58.70;;;;;;5065462;28;20025;-63
2021/04/28 05:25:27;;;;;;;16.40;9.15;;;5.70;58.70;;;;;;5061323;28;20028;-65
2021/04/28 05:27:57;;;;;;;21.77;8.95;;;5.70;58.80;;;;;;5064902;28;20029;-62
2021/04/28 05:30:27;;;;;;;20.30;8.77;;;5.80;58.80;;;;;;5066146;28;20062;-63
2021/04/28 05:32:56;;;;;;;20.60;9.38;;;5.80;58.80;;;;;;5063557;28;20039;-63
2021/04/28 05:35:27;;;;;;;26.15;9.85;;;5.90;58.90;;;;;;5063606;28;20485;-62
2021/04/28 05:37:59;;;;;;;19.67;9.32;;;6.00;58.90;;;;;;5057547;28;20697;-62
2021/04/28 05:40:30;;;;;;;19.70;9.32;;;6.10;58.90;;;;;;5065304;28;20032;-62
2021/04/28 05:42:55;;;;;;;15.40;8.70;;;6.20;58.80;;;;;;5062916;28;20024;-62
2021/04/28 05:45:21;;;;;;;14.40;8.05;;;6.30;58.70;;;;;;5065949;28;20029;-62
2021/04/28 05:47:49;;;;;;;14.98;8.38;;;6.40;58.70;;;;;;5065058;28;20029;-61
2021/04/28 05:50:18;;;;;;;15.60;8.32;;;6.60;58.60;;;;;;5061739;28;20430;-61
2021/04/28 05:52:47;;;;;;;12.75;8.13;;;6.70;58.70;;;;;;5060906;28;20067;-62
2021/04/28 05:55:13;;;;;;;18.83;8.48;;;6.80;58.90;;;;;;5064594;28;20490;-62
2021/04/28 05:57:41;;;;;;;12.15;7.78;;;6.90;58.70;;;;;;5063026;28;20029;-63
2021/04/28 06:00:13;;;;;;;12.40;7.55;;;7.10;58.60;;;;;;5063563;28;20036;-62
2021/04/28 06:02:40;;;;;;;12.75;8.35;;;7.20;58.60;;;;;;5063319;28;20028;-62
2021/04/28 06:05:09;;;;;;;12.32;7.40;;;7.30;58.40;;;;;;5064596;28;20043;-63
2021/04/28 06:07:37;;;;;;;11.88;7.63;;;7.40;58.20;;;;;;5064805;28;20127;-63
2021/04/28 06:10:05;;;;;;;14.93;7.82;;;7.50;58.20;;;;;;5063786;28;20090;-62
2021/04/28 06:12:32;;;;;;;12.30;7.68;;;7.60;58.00;;;;;;5059789;28;20064;-63
2021/04/28 06:15:00;;;;;;;10.70;7.55;;;7.70;57.70;;;;;;5064761;28;20078;-63
2021/04/28 06:17:28;;;;;;;11.25;7.80;;;7.80;57.70;;;;;;5065565;28;20162;-63
2021/04/28 06:20:01;;;;;;;15.02;8.00;;;7.90;57.40;;;;;;5065531;28;20036;-63
2021/04/28 06:22:29;;;;;;;15.70;8.05;;;8.00;57.50;;;;;;5061726;28;20032;-63
2021/04/28 06:24:57;;;;;;;13.48;7.35;;;8.10;57.30;;;;;;5065003;28;20037;-63
2021/04/28 06:27:25;;;;;;;10.77;7.55;;;8.20;57.20;;;;;;5063730;28;20561;-62
2021/04/28 06:29:51;;;;;;;17.00;8.25;;;8.20;57.00;;;;;;5065240;28;20036;-63
2021/04/28 06:32:21;;;;;;;14.50;8.07;;;8.30;57.10;;;;;;5065445;28;20059;-64
2021/04/28 06:34:52;;;;;;;12.27;7.97;;;8.30;57.00;;;;;;5064963;28;20505;-63
2021/04/28 06:37:17;;;;;;;15.38;8.75;;;8.40;57.00;;;;;;5065284;28;20041;-63
2021/04/28 06:39:45;;;;;;;12.30;8.20;;;8.50;57.10;;;;;;5065573;28;20095;-64
2021/04/28 06:42:14;;;;;;;11.55;7.75;;;8.60;57.10;;;;;;5061474;28;20048;-63
2021/04/28 06:44:42;;;;;;;12.55;8.30;;;8.60;57.10;;;;;;5064220;28;20040;-62
2021/04/28 06:47:10;;;;;;;14.85;8.15;;;8.70;57.20;;;;;;5065735;28;20412;-62
2021/04/28 06:49:38;;;;;;;11.32;8.38;;;8.80;57.10;;;;;;5063751;28;20043;-62
2021/04/28 06:52:06;;;;;;;12.23;7.72;;;8.80;57.00;;;;;;5062534;28;20403;-63
2021/04/28 06:54:31;;;;;;;11.07;7.25;;;8.90;56.90;;;;;;5064870;28;20029;-63
2021/04/28 06:56:59;;;;;;;12.52;7.93;;;9.00;56.90;;;;;;5061186;28;20037;-64
2021/04/28 06:59:30;;;;;;;12.02;8.52;;;9.10;56.80;;;;;;5064209;28;20516;-63
2021/04/28 07:01:55;;;;;;;11.65;7.85;;;9.20;57.00;;;;;;5054653;28;20082;-63
2021/04/28 07:04:26;;;;;;;11.95;7.97;;;9.20;56.70;;;;;;5061522;28;20037;-64
2021/04/28 07:06:56;;;;;;;11.63;8.63;;;9.40;56.70;;;;;;5064924;28;20393;-63
2021/04/28 07:09:22;;;;;;;13.60;9.20;;;9.40;56.90;;;;;;5063835;28;21073;-63
2021/04/28 07:11:52;;;;;;;14.38;9.55;;;9.50;56.80;;;;;;5057585;28;20029;-63
2021/04/28 07:14:18;;;;;;;12.60;8.93;;;9.50;57.10;;;;;;5067764;28;20518;-63
2021/04/28 07:16:46;;;;;;;12.07;8.15;;;9.60;56.80;;;;;;5066284;28;20037;-63
2021/04/28 07:19:12;;;;;;;12.73;9.20;;;9.70;56.70;;;;;;5065247;28;20060;-62
2021/04/28 07:21:42;;;;;;;16.55;9.43;;;9.80;56.70;;;;;;5069043;28;20313;-63
2021/04/28 07:24:08;;;;;;;17.50;8.80;;;9.80;57.00;;;;;;5068355;28;20032;-62
2021/04/28 07:26:33;;;;;;;13.90;9.23;;;9.90;56.70;;;;;;5067082;28;20029;-63
2021/04/28 07:29:04;;;;;;;15.65;8.82;;;9.90;56.70;;;;;;5066049;28;20029;-64
2021/04/28 07:31:32;;;;;;;15.82;9.40;;;10.00;56.80;;;;;;5065445;28;20448;-63
2021/04/28 07:34:00;;;;;;;13.60;8.52;;;10.10;57.00;;;;;;5059857;28;20028;-63
2021/04/28 07:36:29;;;;;;;17.52;9.95;;;10.20;56.90;;;;;;5066816;28;20032;-62
2021/04/28 07:38:57;;;;;;;13.02;8.68;;;10.30;56.80;;;;;;5067595;28;20436;-63
2021/04/28 07:41:25;;;;;;;12.23;8.85;;;10.40;56.70;;;;;;5067780;28;20028;-63
2021/04/28 07:43:55;;;;;;;13.65;9.68;;;10.50;56.60;;;;;;5067845;28;20037;-61
2021/04/28 07:46:23;;;;;;;17.73;9.95;;;10.60;56.50;;;;;;5066985;28;20446;-63
2021/04/28 07:48:54;;;;;;;15.00;9.05;;;10.70;56.60;;;;;;5067097;28;20033;-63
2021/04/28 07:51:22;;;;;;;11.80;9.27;;;10.80;56.60;;;;;;5065776;28;20405;-63
2021/04/28 07:53:50;;;;;;;16.23;10.02;;;10.80;56.30;;;;;;5066758;28;20040;-62
2021/04/28 07:56:21;;;;;;;17.10;9.70;;;10.90;56.50;;;;;;5067045;28;20036;-63
2021/04/28 07:58:52;;;;;;;12.90;9.82;;;11.00;56.40;;;;;;5067103;28;20040;-63
2021/04/28 08:01:20;;;;;;;14.63;9.63;;;11.10;57.00;;;;;;5067647;28;20037;-63
2021/04/28 08:03:52;;;;;;;13.18;9.05;;;11.20;56.30;;;;;;5066561;28;20469;-61
2021/04/28 08:06:20;;;;;;;17.58;10.15;;;11.30;56.40;;;;;;5067501;28;20032;-60
2021/04/28 08:08:48;;;;;;;14.82;9.68;;;11.40;56.20;;;;;;5066777;28;20505;-63
2021/04/28 08:11:14;;;;;;;14.70;9.35;;;11.50;56.10;;;;;;5062416;28;20048;-66
2021/04/28 08:13:42;;;;;;;16.63;9.35;;;11.60;56.00;;;;;;5065631;28;20028;-64
2021/04/28 08:16:08;;;;;;;11.88;9.13;;;11.70;56.00;;;;;;5065283;28;20036;-63
2021/04/28 08:18:38;;;;;;;13.23;10.10;;;11.80;55.90;;;;;;5066113;28;20048;-63
2021/04/28 08:21:06;;;;;;;13.30;8.43;;;11.90;55.80;;;;;;5067197;28;20398;-61
2021/04/28 08:23:32;;;;;;;12.55;8.98;;;12.00;55.60;;;;;;5065901;28;20051;-60
2021/04/28 08:26:06;;;;;;;12.82;9.30;;;12.10;55.30;;;;;;5065746;28;20523;-63
2021/04/28 08:28:39;;;;;;;13.05;9.15;;;12.20;55.40;;;;;;5067173;28;20115;-63
2021/04/28 08:31:09;;;;;;;12.98;9.02;;;12.30;55.30;;;;;;5065336;28;20033;-63
2021/04/28 08:33:38;;;;;;;15.90;9.45;;;12.40;55.10;;;;;;5066506;28;20036;-63
2021/04/28 08:36:06;;;;;;;13.00;9.38;;;12.50;55.00;;;;;;5065278;28;20052;-63
2021/04/28 08:38:33;;;;;;;15.35;10.00;;;12.60;54.80;;;;;;5063812;28;20032;-63
2021/04/28 08:41:03;;;;;;;14.77;10.07;;;12.60;54.80;;;;;;5066908;28;20505;-62
2021/04/28 08:43:31;;;;;;;15.90;9.93;;;12.70;54.70;;;;;;5064976;28;20544;-63
2021/04/28 08:45:59;;;;;;;14.13;10.00;;;12.70;54.60;;;;;;5064405;28;20028;-63
2021/04/28 08:48:25;;;;;;;13.70;9.55;;;12.80;54.70;;;;;;5062096;28;20036;-64
2021/04/28 08:50:55;;;;;;;16.25;9.73;;;12.90;54.60;;;;;;5063076;28;20450;-63
2021/04/28 08:53:21;;;;;;;16.20;9.88;;;12.90;54.40;;;;;;5064066;28;20033;-64
2021/04/28 08:55:49;;;;;;;18.85;9.65;;;13.00;54.30;;;;;;5066145;28;20028;-63
2021/04/28 08:58:20;;;;;;;21.02;10.43;;;13.00;54.40;;;;;;5065326;28;20040;-62
2021/04/28 09:00:48;;;;;;;15.60;9.38;;;13.00;54.90;;;;;;5064751;28;20591;-64
2021/04/28 09:03:18;;;;;;;14.60;10.63;;;13.00;54.10;;;;;;5064286;28;20033;-61
2021/04/28 09:05:47;;;;;;;17.25;10.27;;;13.10;54.10;;;;;;5067127;28;20570;-59
2021/04/28 09:08:18;;;;;;;16.00;9.52;;;13.10;54.30;;;;;;5065768;28;20043;-63
2021/04/28 09:10:46;;;;;;;17.20;10.15;;;13.10;54.40;;;;;;5062714;28;20033;-62
2021/04/28 09:13:23;;;;;;;14.68;10.27;;;13.10;54.60;;;;;;5062995;28;20111;-63
2021/04/28 09:15:55;;;;;;;17.05;10.27;;;13.10;54.60;;;;;;5064923;28;20029;-63
2021/04/28 09:18:34;;;;;;;13.85;9.93;;;13.10;55.00;;;;;;5063404;28;20025;-65
2021/04/28 09:21:04;;;;;;;17.92;10.50;;;13.20;54.60;;;;;;5065214;28;20025;-63
2021/04/28 09:23:37;;;;;;;18.08;9.60;;;13.20;54.40;;;;;;5063458;28;20111;-64
2021/04/28 09:26:15;;;;;;;19.90;10.02;;;13.20;54.40;;;;;;5064950;28;20029;-64
2021/04/28 09:28:51;;;;;;;17.33;10.00;;;13.20;55.20;;;;;;5064995;28;20029;-63
2021/04/28 09:31:18;;;;;;;13.23;10.40;;;13.20;54.40;;;;;;5065345;28;20033;-63
2021/04/28 09:33:57;;;;;;;17.17;10.00;;;13.20;54.30;;;;;;5065069;28;20025;-63
2021/04/28 09:36:36;;;;;;;19.02;10.25;;;13.20;54.30;;;;;;5063086;28;20048;-62
2021/04/28 09:39:17;;;;;;;17.50;10.32;;;13.20;54.20;;;;;;5065627;28;20037;-63
2021/04/28 09:41:50;;;;;;;16.73;10.75;;;13.30;54.30;;;;;;5064511;28;20064;-63
2021/04/28 09:44:21;;;;;;;14.05;9.98;;;13.30;54.40;;;;;;5063990;28;20037;-63
2021/04/28 09:46:57;;;;;;;19.08;10.85;;;13.30;54.10;;;;;;5063777;28;20036;-63
2021/04/28 09:49:28;;;;;;;15.32;9.68;;;13.40;54.20;;;;;;5063982;28;20036;-64
2021/04/28 09:52:02;;;;;;;16.45;10.43;;;13.50;54.20;;;;;;5066169;28;20040;-64
2021/04/28 09:54:35;;;;;;;13.70;10.23;;;13.50;54.20;;;;;;5065694;28;20616;-64
2021/04/28 09:57:03;;;;;;;20.77;10.57;;;13.60;54.10;;;;;;5066361;28;20056;-64
2021/04/28 09:59:48;;;;;;;15.60;10.30;;;13.60;54.20;;;;;;5065796;28;20040;-64
2021/04/28 10:02:28;;;;;;;22.63;10.70;;;13.70;54.20;;;;;;5064912;28;20092;-64
2021/04/28 10:05:22;;;;;;;13.35;9.95;;;13.70;54.10;;;;;;5063070;28;20535;-62
2021/04/28 10:07:52;;;;;;;17.13;10.57;;;13.70;54.10;;;;;;5063972;28;20040;-63
2021/04/28 10:10:23;;;;;;;15.82;10.55;;;13.70;53.80;;;;;;5062607;28;20493;-63
2021/04/28 10:12:51;;;;;;;14.68;10.15;;;13.80;54.00;;;;;;5062900;28;20040;-64
2021/04/28 10:15:19;;;;;;;16.48;10.15;;;13.70;54.00;;;;;;5062958;28;20065;-63
2021/04/28 10:17:48;;;;;;;20.83;11.77;;;13.80;54.10;;;;;;5064325;28;20032;-62
2021/04/28 10:20:17;;;;;;;20.75;11.27;;;13.80;54.20;;;;;;5063430;28;20047;-63
2021/04/28 10:22:44;;;;;;;20.77;10.55;;;13.80;54.20;;;;;;5065322;28;20302;-63
2021/04/28 10:25:16;;;;;;;19.15;10.80;;;13.90;54.20;;;;;;5065865;28;20386;-64
2021/04/28 10:27:47;;;;;;;20.20;10.45;;;14.00;54.30;;;;;;5066301;28;20032;-64
2021/04/28 10:30:16;;;;;;;19.83;11.00;;;14.00;54.30;;;;;;5065389;28;20029;-63
2021/04/28 10:32:45;;;;;;;17.27;10.40;;;14.10;54.10;;;;;;5064236;28;20519;-63
2021/04/28 10:35:17;;;;;;;16.67;10.93;;;14.20;54.00;;;;;;5065427;28;20140;-63
2021/04/28 10:37:52;;;;;;;16.60;10.70;;;14.20;54.10;;;;;;5065139;28;20078;-63
2021/04/28 10:40:24;;;;;;;16.65;9.82;;;14.30;54.00;;;;;;5065522;28;20048;-60
2021/04/28 10:42:51;;;;;;;16.65;9.73;;;14.40;53.80;;;;;;5064804;28;20033;-64
2021/04/28 10:45:31;;;;;;;23.38;10.00;;;14.50;53.70;;;;;;5066340;28;20041;-64
2021/04/28 10:47:57;;;;;;;19.95;10.43;;;14.60;53.80;;;;;;5065902;28;20028;-63
2021/04/28 10:50:48;;;;;;;17.33;10.48;;;14.60;53.40;;;;;;5064561;28;20039;-63
2021/04/28 10:53:18;;;;;;;21.00;10.57;;;14.80;53.40;;;;;;5069214;28;20074;-64
2021/04/28 10:55:55;;;;;;;22.52;10.40;;;14.80;53.20;;;;;;5067716;28;20037;-64
2021/04/28 10:58:27;;;;;;;17.33;9.82;;;14.80;53.10;;;;;;5069258;28;20493;-66
2021/04/28 11:01:13;;;;;;;15.70;9.93;;;14.90;53.00;;;;;;5070231;28;20028;-65
2021/04/28 11:03:58;;;;;;;15.05;9.77;;;15.00;53.10;;;;;;5067096;28;20545;-65
2021/04/28 11:06:29;;;;;;;14.15;9.85;;;15.00;53.00;;;;;;5064872;28;20039;-64
2021/04/28 11:09:00;;;;;;;13.95;10.13;;;15.00;53.00;;;;;;5068649;28;20028;-64
2021/04/28 11:11:37;;;;;;;20.17;9.93;;;15.10;53.20;;;;;;5061726;28;20059;-64
2021/04/28 11:14:17;;;;;;;19.60;10.65;;;15.10;53.10;;;;;;5067266;28;20017;-63
2021/04/28 11:16:49;;;;;;;15.75;9.95;;;15.20;53.10;;;;;;5068934;28;20028;-64
2021/04/28 11:19:27;;;;;;;15.32;10.20;;;15.30;53.00;;;;;;5064759;28;20194;-64
2021/04/28 11:22:20;;;;;;;14.38;9.70;;;15.30;52.90;;;;;;5066475;28;20029;-64
2021/04/28 11:25:09;;;;;;;22.15;10.25;;;15.40;52.80;;;;;;5067244;28;20579;-64
2021/04/28 11:27:53;;;;;;;18.98;9.35;;;15.40;53.50;;;;;;5066248;28;20040;-63
2021/04/28 11:30:21;;;;;;;16.60;9.75;;;15.50;52.80;;;;;;5068125;28;20078;-64
2021/04/28 11:33:10;;;;;;;18.50;9.95;;;15.50;52.80;;;;;;5066715;28;20040;-64
2021/04/28 11:35:39;;;;;;;16.88;9.95;;;15.60;52.80;;;;;;5066876;28;20028;-62
2021/04/28 11:38:12;;;;;;;20.40;9.50;;;15.60;52.60;;;;;;5067451;28;20045;-64
2021/04/28 11:41:02;;;;;;;18.40;9.95;;;15.70;52.40;;;;;;5066545;28;20028;-64
2021/04/28 11:43:41;;;;;;;23.23;10.00;;;15.70;52.30;;;;;;5067048;28;20053;-64
2021/04/28 11:46:13;;;;;;;20.10;10.23;;;15.80;52.30;;;;;;5068534;28;20520;-64
2021/04/28 11:48:44;;;;;;;18.58;9.35;;;15.80;52.50;;;;;;5066499;28;20036;-64
2021/04/28 11:51:17;;;;;;;20.65;9.70;;;15.90;52.60;;;;;;5067873;28;20032;-62
2021/04/28 11:53:54;;;;;;;17.58;9.55;;;16.00;52.30;;;;;;5066606;28;20040;-64
2021/04/28 11:56:30;;;;;;;11.85;9.27;;;16.10;52.10;;;;;;5067496;28;20079;-65
2021/04/28 11:59:00;;;;;;;14.23;10.00;;;16.20;52.00;;;;;;5066210;28;20521;-64
2021/04/28 12:01:30;;;;;;;14.50;9.98;;;16.30;52.00;;;;;;5067787;28;20028;-64
2021/04/28 12:04:11;;;;;;;12.93;9.75;;;16.40;51.90;;;;;;5064270;28;20577;-64
2021/04/28 12:06:39;;;;;;;12.63;9.18;;;16.50;51.80;;;;;;5066672;28;20119;-64
2021/04/28 12:09:22;;;;;;;21.50;10.07;;;16.60;51.70;;;;;;5065712;28;20033;-64
2021/04/28 12:12:17;;;;;;;15.82;10.65;;;16.70;52.00;;;;;;5063686;28;20668;-64
2021/04/28 12:15:08;;;;;;;13.70;10.00;;;16.80;51.90;;;;;;5064642;28;20656;-64
2021/04/28 12:17:41;;;;;;;12.43;10.35;;;16.90;51.90;;;;;;5066830;28;20041;-64
2021/04/28 12:20:12;;;;;;;14.57;10.35;;;16.90;51.80;;;;;;5060840;28;20064;-64
2021/04/28 12:22:41;;;;;;;14.90;10.20;;;16.90;52.00;;;;;;5062103;28;20032;-64
2021/04/28 12:25:12;;;;;;;12.55;10.35;;;17.00;51.80;;;;;;5067275;28;20029;-64
2021/04/28 12:27:41;;;;;;;16.15;9.70;;;17.00;51.80;;;;;;5067774;28;20032;-64
2021/04/28 12:30:15;;;;;;;12.88;9.75;;;17.10;51.70;;;;;;5066540;28;20528;-64
2021/04/28 12:32:46;;;;;;;14.05;9.30;;;17.10;51.20;;;;;;5058821;28;20047;-63
2021/04/28 12:35:16;;;;;;;12.65;9.50;;;17.20;51.30;;;;;;5063325;28;20029;-64
2021/04/28 12:38:08;;;;;;;11.27;9.55;;;17.40;51.20;;;;;;5065218;28;20056;-64
2021/04/28 12:41:05;;;;;;;10.52;8.77;;;17.50;51.10;;;;;;5065249;28;20035;-64
2021/04/28 12:43:36;;;;;;;13.93;9.50;;;17.60;50.60;;;;;;5066596;28;20041;-64
2021/04/28 12:46:10;;;;;;;12.10;9.10;;;17.60;50.50;;;;;;5066750;28;20041;-64
2021/04/28 12:49:05;;;;;;;13.43;8.98;;;17.70;50.30;;;;;;5066651;28;20032;-62
2021/04/28 12:51:41;;;;;;;17.00;8.82;;;17.80;49.90;;;;;;5066389;28;20037;-64
2021/04/28 12:54:06;;;;;;;13.82;9.40;;;17.90;49.90;;;;;;5082217;28;20025;-64
2021/04/28 12:56:48;;;;;;;12.55;9.18;;;18.00;50.00;;;;;;5061399;28;20032;-64
2021/04/28 12:59:22;;;;;;;13.73;9.77;;;18.10;49.80;;;;;;5062941;28;20064;-64